Time;durP1;ratioP1;P1;durP2;ratioP2;P2;SDS_P1;SDS_P2;PMS_P1;PMS_P2;Temp;Humidity;BMP_temperature;BMP_pressure;BME280_temperature;BME280_humidity;BME280_pressure;Samples;Min_cycle;Max_cycle;Signal;HPM_P1;HPM_P2
2022/07/16 00:03:12;;;;;;;4.28;2.22;;;17.70;96.80;;;;;;5028688;28;20052;-77
2022/07/16 00:05:37;;;;;;;6.50;2.55;;;17.60;96.80;;;;;;5032108;28;20026;-76
2022/07/16 00:08:03;;;;;;;5.85;2.22;;;17.60;96.70;;;;;;5014068;28;20482;-76
2022/07/16 00:10:29;;;;;;;6.57;2.30;;;17.50;96.80;;;;;;5031836;28;20026;-76
2022/07/16 00:12:55;;;;;;;4.47;1.85;;;17.50;97.10;;;;;;5030990;28;20412;-77
2022/07/16 00:15:20;;;;;;;4.25;1.95;;;17.40;97.50;;;;;;5021481;28;20117;-77
2022/07/16 00:17:46;;;;;;;5.72;2.30;;;17.40;97.50;;;;;;5031726;28;20179;-77
2022/07/16 00:20:12;;;;;;;5.07;2.30;;;17.40;97.40;;;;;;5031717;28;20116;-77
2022/07/16 00:22:37;;;;;;;4.85;2.15;;;17.40;97.80;;;;;;5031386;28;20026;-77
2022/07/16 00:25:03;;;;;;;6.80;2.03;;;17.30;98.10;;;;;;5031616;28;20030;-77
2022/07/16 00:27:29;;;;;;;9.60;2.28;;;17.30;98.10;;;;;;5031480;28;20028;-77
2022/07/16 00:29:55;;;;;;;7.07;2.40;;;17.30;98.00;;;;;;5013783;28;20033;-77
2022/07/16 00:32:20;;;;;;;6.88;2.20;;;17.20;98.10;;;;;;5031189;28;20033;-77
2022/07/16 00:34:46;;;;;;;4.57;2.10;;;17.20;98.60;;;;;;5031590;28;20021;-77
2022/07/16 00:37:11;;;;;;;4.97;1.92;;;17.20;98.90;;;;;;5013836;28;20022;-77
2022/07/16 00:39:37;;;;;;;4.65;2.17;;;17.10;99.20;;;;;;5031597;28;20053;-77
2022/07/16 00:42:02;;;;;;;5.57;2.30;;;17.10;99.60;;;;;;5031398;28;20501;-77
2022/07/16 00:44:28;;;;;;;7.30;2.88;;;17.10;99.90;;;;;;5031315;28;20060;-77
2022/07/16 00:46:54;;;;;;;5.50;2.33;;;17.00;99.90;;;;;;5031371;28;20529;-77
2022/07/16 00:49:19;;;;;;;6.22;2.05;;;17.00;99.90;;;;;;5030782;28;20032;-77
2022/07/16 00:51:50;;;;;;;5.38;2.30;;;16.90;99.90;;;;;;5031228;28;20022;-77
2022/07/16 00:54:16;;;;;;;5.65;2.10;;;16.90;99.90;;;;;;5031115;28;20033;-77
2022/07/16 00:56:42;;;;;;;6.53;2.22;;;16.90;99.90;;;;;;5030986;28;20087;-77
2022/07/16 00:59:08;;;;;;;6.00;2.45;;;16.80;99.90;;;;;;5031072;28;20029;-77
2022/07/16 01:01:34;;;;;;;4.43;2.50;;;16.70;99.90;;;;;;5030226;28;20454;-77
2022/07/16 01:04:03;;;;;;;5.60;2.90;;;16.70;99.90;;;;;;5031087;28;20047;-77
2022/07/16 01:06:29;;;;;;;5.80;2.15;;;16.60;99.90;;;;;;5030965;28;20032;-77
2022/07/16 01:08:55;;;;;;;4.25;2.40;;;16.60;99.90;;;;;;5031397;28;20033;-77
2022/07/16 01:11:21;;;;;;;4.95;2.55;;;16.60;99.90;;;;;;5013131;28;20037;-77
2022/07/16 01:13:48;;;;;;;5.60;2.25;;;16.60;99.90;;;;;;5025806;28;20144;-78
2022/07/16 01:16:14;;;;;;;5.28;2.47;;;16.50;99.90;;;;;;5030954;28;20053;-77
2022/07/16 01:18:41;;;;;;;6.40;2.40;;;16.50;99.90;;;;;;5013180;28;20386;-77
2022/07/16 01:21:07;;;;;;;4.68;2.28;;;16.50;99.90;;;;;;5031091;28;20025;-77
2022/07/16 01:23:34;;;;;;;6.78;2.60;;;16.50;99.90;;;;;;5030734;28;20419;-77
2022/07/16 01:26:00;;;;;;;7.32;2.80;;;16.40;99.90;;;;;;5012767;28;20421;-77
2022/07/16 01:28:25;;;;;;;5.03;2.20;;;16.40;99.90;;;;;;5028570;28;20072;-77
2022/07/16 01:30:51;;;;;;;5.55;2.08;;;16.40;99.90;;;;;;5030508;28;20056;-77
2022/07/16 01:33:20;;;;;;;4.40;2.40;;;16.40;99.90;;;;;;5030742;28;20100;-77
2022/07/16 01:35:46;;;;;;;5.10;2.20;;;16.40;99.90;;;;;;5030765;28;20029;-77
2022/07/16 01:38:12;;;;;;;6.28;2.65;;;16.40;99.90;;;;;;5030871;28;20036;-77
2022/07/16 01:40:37;;;;;;;9.63;2.33;;;16.40;99.90;;;;;;5030555;28;20037;-77
2022/07/16 01:43:03;;;;;;;4.47;2.47;;;16.30;99.90;;;;;;5029936;28;20026;-77
2022/07/16 01:45:28;;;;;;;5.53;2.25;;;16.40;99.90;;;;;;5031132;28;20394;-77
2022/07/16 01:47:54;;;;;;;4.63;2.50;;;16.40;99.90;;;;;;5031322;28;20371;-77
2022/07/16 01:50:19;;;;;;;6.10;2.40;;;16.30;99.90;;;;;;5032079;28;20037;-77
2022/07/16 01:52:45;;;;;;;5.68;2.50;;;16.30;99.90;;;;;;5031198;28;20028;-76
2022/07/16 01:55:11;;;;;;;8.10;2.70;;;16.30;99.90;;;;;;5013158;28;20551;-77
2022/07/16 01:57:36;;;;;;;5.00;2.35;;;16.20;99.90;;;;;;5030700;28;20141;-77
2022/07/16 02:00:03;;;;;;;5.95;2.75;;;16.20;99.90;;;;;;5030126;28;20029;-77
2022/07/16 02:02:29;;;;;;;3.63;2.40;;;16.20;99.90;;;;;;5030337;28;20391;-76
2022/07/16 02:04:54;;;;;;;5.95;2.50;;;16.10;99.90;;;;;;5030167;28;20035;-77
2022/07/16 02:07:20;;;;;;;4.82;2.60;;;16.10;99.90;;;;;;5029880;28;20140;-77
2022/07/16 02:09:45;;;;;;;4.28;2.20;;;16.10;99.90;;;;;;5030252;28;20107;-77
2022/07/16 02:12:11;;;;;;;9.27;2.38;;;16.00;99.90;;;;;;5031823;28;20029;-77
2022/07/16 02:14:37;;;;;;;7.20;2.65;;;16.00;99.90;;;;;;5019938;28;20388;-77
2022/07/16 02:17:02;;;;;;;7.07;2.80;;;16.00;99.90;;;;;;5034117;28;20022;-77
2022/07/16 02:19:28;;;;;;;7.55;3.20;;;15.90;99.90;;;;;;5034022;28;20542;-77
2022/07/16 02:21:53;;;;;;;3.78;2.30;;;15.80;99.90;;;;;;5033812;28;20413;-77
2022/07/16 02:24:19;;;;;;;4.82;2.78;;;15.80;99.90;;;;;;5033863;28;20057;-77
2022/07/16 02:26:45;;;;;;;7.18;2.60;;;15.80;99.90;;;;;;5033893;28;20033;-77
2022/07/16 02:29:11;;;;;;;9.82;2.88;;;15.70;99.90;;;;;;5032469;28;20067;-77
2022/07/16 02:31:36;;;;;;;4.55;2.83;;;15.70;99.90;;;;;;5033034;28;20032;-77
2022/07/16 02:34:02;;;;;;;5.43;3.08;;;15.60;99.90;;;;;;5034118;28;20030;-77
2022/07/16 02:36:27;;;;;;;6.60;3.30;;;15.60;99.90;;;;;;5033715;28;20075;-77
2022/07/16 02:38:53;;;;;;;5.50;2.60;;;15.60;99.90;;;;;;5015988;28;20064;-77
2022/07/16 02:41:18;;;;;;;7.18;2.80;;;15.50;99.90;;;;;;5033654;28;20485;-77
2022/07/16 02:43:44;;;;;;;6.93;2.80;;;15.50;99.90;;;;;;5033502;28;20501;-77
2022/07/16 02:46:09;;;;;;;6.38;2.65;;;15.50;99.90;;;;;;5033451;28;20505;-77
2022/07/16 02:48:35;;;;;;;8.75;3.17;;;15.40;99.90;;;;;;5033310;28;20147;-76
2022/07/16 02:51:01;;;;;;;6.13;2.95;;;15.40;99.90;;;;;;5016007;28;20025;-76
2022/07/16 02:53:26;;;;;;;6.88;3.20;;;15.40;99.90;;;;;;5032817;28;20056;-77
2022/07/16 02:55:52;;;;;;;5.10;2.80;;;15.40;99.90;;;;;;5015417;28;20029;-76
2022/07/16 02:58:17;;;;;;;5.97;2.75;;;15.30;99.90;;;;;;5033272;28;20041;-76
2022/07/16 03:00:43;;;;;;;6.35;3.25;;;15.30;99.90;;;;;;5032913;28;20039;-76
2022/07/16 03:03:09;;;;;;;6.97;3.50;;;15.30;99.90;;;;;;5026772;28;20076;-76
2022/07/16 03:05:34;;;;;;;12.65;3.00;;;15.20;99.90;;;;;;5033194;28;20063;-77
2022/07/16 03:08:00;;;;;;;4.53;2.88;;;15.20;99.90;;;;;;5033221;28;20049;-76
2022/07/16 03:10:25;;;;;;;5.55;2.92;;;15.10;99.90;;;;;;5033499;28;20029;-77
2022/07/16 03:12:51;;;;;;;4.80;3.17;;;15.10;99.90;;;;;;5031693;28;20033;-77
2022/07/16 03:15:16;;;;;;;8.20;3.42;;;15.10;99.90;;;;;;5029187;28;20065;-77
2022/07/16 03:17:42;;;;;;;8.40;3.47;;;15.10;99.90;;;;;;5023093;28;20044;-77
2022/07/16 03:20:08;;;;;;;9.85;3.17;;;15.00;99.90;;;;;;5033174;28;20053;-77
2022/07/16 03:22:34;;;;;;;5.28;2.90;;;15.00;99.90;;;;;;5033052;28;20116;-77
2022/07/16 03:25:00;;;;;;;11.32;3.08;;;14.90;99.90;;;;;;5032295;28;20104;-77
2022/07/16 03:27:27;;;;;;;6.00;2.90;;;14.90;99.90;;;;;;5015118;28;20030;-77
2022/07/16 03:29:53;;;;;;;5.78;3.03;;;14.90;99.90;;;;;;5032768;28;20060;-77
2022/07/16 03:32:19;;;;;;;8.38;3.53;;;14.90;99.90;;;;;;5032688;28;20478;-77
2022/07/16 03:34:44;;;;;;;5.90;3.15;;;14.90;99.90;;;;;;5032670;28;20122;-77
2022/07/16 03:37:10;;;;;;;8.55;3.40;;;14.90;99.90;;;;;;5032833;28;20030;-77
2022/07/16 03:39:35;;;;;;;7.22;3.30;;;14.90;99.90;;;;;;5032189;28;20021;-77
2022/07/16 03:42:01;;;;;;;6.70;3.10;;;14.90;99.90;;;;;;5022253;28;20037;-77
2022/07/16 03:44:26;;;;;;;6.40;3.38;;;14.80;99.90;;;;;;5014301;28;20029;-77
2022/07/16 03:46:52;;;;;;;7.35;2.95;;;14.80;99.90;;;;;;5014885;28;20569;-77
2022/07/16 03:49:18;;;;;;;5.78;3.35;;;14.80;99.90;;;;;;5032430;28;20104;-77
2022/07/16 03:51:43;;;;;;;8.05;3.67;;;14.80;99.90;;;;;;5032258;28;20553;-77
2022/07/16 03:54:09;;;;;;;6.35;2.97;;;14.80;99.90;;;;;;5026181;28;20099;-76
2022/07/16 03:56:35;;;;;;;6.72;3.53;;;14.80;99.90;;;;;;5032441;28;20025;-69
2022/07/16 03:59:01;;;;;;;6.13;3.15;;;14.70;99.90;;;;;;5033163;28;20053;-68
2022/07/16 04:01:26;;;;;;;5.50;3.17;;;14.70;99.90;;;;;;5033054;28;20037;-68
2022/07/16 04:03:52;;;;;;;7.10;3.30;;;14.70;99.90;;;;;;5032268;28;20120;-70
2022/07/16 04:06:18;;;;;;;6.25;3.10;;;14.70;99.90;;;;;;5032373;28;20044;-70
2022/07/16 04:08:43;;;;;;;6.53;3.38;;;14.70;99.90;;;;;;5014966;28;20029;-73
2022/07/16 04:11:09;;;;;;;6.72;3.33;;;14.70;99.90;;;;;;5034470;28;20030;-72
2022/07/16 04:13:37;;;;;;;9.15;3.15;;;14.70;99.90;;;;;;5034110;28;20029;-72
2022/07/16 04:16:03;;;;;;;8.45;3.20;;;14.70;99.90;;;;;;5034364;28;20037;-73
2022/07/16 04:18:29;;;;;;;9.23;3.38;;;14.70;99.90;;;;;;5034388;28;20449;-73
2022/07/16 04:20:54;;;;;;;5.35;3.28;;;14.70;99.90;;;;;;5016704;28;20072;-72
2022/07/16 04:23:20;;;;;;;6.78;3.38;;;14.70;99.90;;;;;;5027783;28;20056;-71
2022/07/16 04:25:45;;;;;;;9.30;3.17;;;14.70;99.90;;;;;;5022255;28;20069;-71
2022/07/16 04:28:11;;;;;;;11.05;3.65;;;14.70;99.90;;;;;;5015604;28;20033;-71
2022/07/16 04:30:36;;;;;;;6.88;3.20;;;14.70;99.90;;;;;;5028203;28;20030;-71
2022/07/16 04:33:03;;;;;;;8.18;3.03;;;14.70;99.90;;;;;;5033940;28;20462;-70
2022/07/16 04:35:28;;;;;;;8.27;3.03;;;14.80;99.90;;;;;;5033083;28;20053;-71
2022/07/16 04:37:54;;;;;;;6.60;3.25;;;14.80;99.90;;;;;;5033676;28;20107;-70
2022/07/16 04:40:19;;;;;;;8.10;3.58;;;14.80;99.90;;;;;;5033800;28;20037;-70
2022/07/16 04:42:45;;;;;;;6.13;3.10;;;14.90;99.90;;;;;;5033093;28;20040;-73
2022/07/16 04:45:12;;;;;;;6.97;3.25;;;14.90;99.90;;;;;;5024110;28;20049;-72
2022/07/16 04:47:38;;;;;;;7.13;3.30;;;15.00;99.90;;;;;;5030240;28;20470;-75
2022/07/16 04:50:05;;;;;;;6.18;3.38;;;15.00;99.90;;;;;;5030132;28;20100;-74
2022/07/16 04:52:30;;;;;;;4.90;2.97;;;15.00;99.90;;;;;;5030137;28;20370;-74
2022/07/16 04:54:57;;;;;;;7.65;3.17;;;15.10;99.90;;;;;;5030237;28;20030;-74
2022/07/16 04:57:24;;;;;;;6.53;3.15;;;15.10;99.90;;;;;;5030336;28;20049;-75
2022/07/16 04:59:50;;;;;;;8.25;2.95;;;15.10;99.90;;;;;;5021184;28;20036;-75
2022/07/16 05:04:59;;;;;;;5.80;3.13;;;15.30;99.90;;;;;;5026535;28;20505;-74
2022/07/16 05:07:25;;;;;;;6.15;3.40;;;15.30;99.90;;;;;;5029523;28;20166;-74
2022/07/16 05:09:50;;;;;;;7.20;3.28;;;15.30;99.90;;;;;;5022700;28;20171;-74
2022/07/16 05:12:16;;;;;;;4.88;3.30;;;15.40;99.90;;;;;;5030196;28;20032;-75
2022/07/16 05:14:41;;;;;;;7.10;3.45;;;15.50;99.90;;;;;;5026767;28;20034;-75
2022/07/16 05:17:07;;;;;;;7.55;3.47;;;15.50;99.90;;;;;;5030247;28;20014;-75
2022/07/16 05:19:32;;;;;;;5.25;3.00;;;15.70;99.90;;;;;;5030006;28;20462;-75
2022/07/16 05:21:58;;;;;;;7.57;3.38;;;15.80;99.90;;;;;;5030081;28;20391;-75
2022/07/16 05:24:24;;;;;;;6.72;3.20;;;15.80;99.90;;;;;;5005360;28;20030;-75
2022/07/16 05:26:49;;;;;;;7.55;3.20;;;15.90;99.90;;;;;;5028774;28;20038;-75
2022/07/16 05:29:15;;;;;;;7.60;2.70;;;15.90;99.90;;;;;;5029185;28;20025;-75
2022/07/16 05:31:41;;;;;;;7.07;2.97;;;16.00;99.90;;;;;;5029549;28;20033;-75
2022/07/16 05:34:06;;;;;;;6.60;2.95;;;16.10;99.90;;;;;;5026781;28;20030;-75
2022/07/16 05:36:32;;;;;;;5.90;3.00;;;16.20;99.90;;;;;;5029353;28;20025;-75
2022/07/16 05:38:58;;;;;;;7.03;2.90;;;16.30;99.90;;;;;;5029538;28;20017;-75
2022/07/16 05:41:23;;;;;;;9.45;3.40;;;16.40;99.90;;;;;;5029393;28;20044;-74
2022/07/16 05:43:49;;;;;;;6.53;3.05;;;16.50;99.90;;;;;;5029379;28;20037;-74
2022/07/16 05:46:14;;;;;;;5.30;3.00;;;16.60;99.90;;;;;;5026155;28;20041;-75
2022/07/16 05:48:40;;;;;;;7.15;3.20;;;16.70;99.90;;;;;;5030846;28;20030;-75
2022/07/16 05:51:05;;;;;;;5.72;3.45;;;16.80;99.90;;;;;;5030382;28;20624;-76
2022/07/16 05:53:31;;;;;;;5.35;3.42;;;16.90;99.90;;;;;;5030792;28;20240;-76
2022/07/16 05:55:57;;;;;;;9.27;3.38;;;17.00;99.90;;;;;;5030066;28;20033;-76
2022/07/16 05:58:22;;;;;;;6.20;3.00;;;17.10;99.90;;;;;;5030622;28;20104;-76
2022/07/16 06:00:48;;;;;;;10.77;2.78;;;17.10;99.90;;;;;;5031367;28;20071;-76
2022/07/16 06:03:13;;;;;;;6.28;2.85;;;17.20;99.90;;;;;;5029543;28;20045;-76
2022/07/16 06:05:40;;;;;;;4.63;2.90;;;17.30;99.90;;;;;;5030264;28;20485;-76
2022/07/16 06:08:06;;;;;;;8.07;2.60;;;17.50;99.90;;;;;;5019989;28;20040;-76
2022/07/16 06:10:31;;;;;;;4.43;2.60;;;17.60;99.90;;;;;;5030006;28;20026;-76
2022/07/16 06:12:57;;;;;;;9.05;3.40;;;17.80;99.90;;;;;;5027819;28;20022;-76
2022/07/16 06:15:23;;;;;;;5.80;2.35;;;17.80;99.90;;;;;;5025174;28;20114;-76
2022/07/16 06:17:49;;;;;;;8.52;2.50;;;18.00;99.90;;;;;;5030476;28;20041;-75
2022/07/16 06:20:14;;;;;;;4.47;2.60;;;18.00;99.90;;;;;;5029818;28;20033;-75
2022/07/16 06:22:40;;;;;;;7.35;2.38;;;18.10;99.90;;;;;;5029661;28;20391;-75
2022/07/16 06:25:06;;;;;;;9.15;2.70;;;18.30;99.90;;;;;;5030412;28;20040;-75
2022/07/16 06:27:32;;;;;;;6.97;2.80;;;18.50;99.90;;;;;;5011556;28;20068;-74
2022/07/16 06:30:03;;;;;;;8.40;2.75;;;18.60;99.90;;;;;;5029009;28;20658;-74
2022/07/16 06:32:28;;;;;;;6.03;2.50;;;18.70;99.90;;;;;;5029866;28;20825;-74
2022/07/16 06:34:54;;;;;;;7.10;2.58;;;18.80;99.90;;;;;;5029763;28;20080;-74
2022/07/16 06:37:19;;;;;;;6.20;2.65;;;18.90;99.90;;;;;;5029697;28;20034;-74
2022/07/16 06:39:45;;;;;;;8.32;2.60;;;19.10;99.90;;;;;;5029660;28;20037;-74
2022/07/16 06:42:10;;;;;;;4.57;2.35;;;19.20;99.90;;;;;;5029612;28;20036;-74
2022/07/16 06:44:38;;;;;;;6.05;2.70;;;19.30;99.90;;;;;;5028793;28;20041;-74
2022/07/16 06:47:04;;;;;;;3.53;2.08;;;19.40;99.90;;;;;;5029165;28;20367;-74
2022/07/16 06:49:30;;;;;;;5.95;2.40;;;19.60;99.90;;;;;;5029576;28;20033;-74
2022/07/16 06:51:55;;;;;;;3.35;2.10;;;19.60;99.90;;;;;;5029078;28;20030;-74
2022/07/16 06:54:21;;;;;;;7.00;2.67;;;19.80;99.90;;;;;;5011390;28;20560;-74
2022/07/16 06:56:47;;;;;;;6.32;2.20;;;19.90;99.90;;;;;;5029293;28;20061;-74
2022/07/16 06:59:12;;;;;;;11.05;2.38;;;19.90;99.90;;;;;;5009628;28;20041;-74
2022/07/16 07:01:38;;;;;;;6.70;2.10;;;20.00;99.90;;;;;;5028565;28;20474;-74
2022/07/16 07:04:03;;;;;;;4.32;2.15;;;20.00;99.90;;;;;;5011225;28;20200;-75
2022/07/16 07:06:29;;;;;;;7.78;2.38;;;20.10;99.90;;;;;;5029099;28;20147;-74
2022/07/16 07:08:54;;;;;;;3.33;2.03;;;20.20;99.90;;;;;;5029123;28;20095;-74
2022/07/16 07:11:20;;;;;;;6.00;2.08;;;20.20;99.90;;;;;;5029055;28;20051;-74
2022/07/16 07:13:45;;;;;;;6.53;2.50;;;20.20;99.90;;;;;;5025068;28;20033;-74
2022/07/16 07:16:11;;;;;;;6.82;2.30;;;20.30;99.90;;;;;;5029018;28;20033;-75
2022/07/16 07:18:36;;;;;;;6.68;2.60;;;20.40;99.90;;;;;;5028938;28;20042;-75
2022/07/16 07:21:02;;;;;;;5.25;2.20;;;20.50;99.90;;;;;;5028779;28;20037;-74
2022/07/16 07:23:28;;;;;;;5.40;2.05;;;20.50;99.90;;;;;;5028738;28;20033;-76
2022/07/16 07:25:55;;;;;;;5.45;2.30;;;20.50;99.80;;;;;;5029043;28;20029;-75
2022/07/16 07:28:21;;;;;;;3.13;1.98;;;20.60;99.90;;;;;;5030657;28;20387;-75
2022/07/16 07:30:46;;;;;;;5.80;2.40;;;20.60;99.90;;;;;;5031720;28;20036;-75
2022/07/16 07:33:13;;;;;;;4.15;2.03;;;20.60;99.90;;;;;;5031675;28;20026;-75
2022/07/16 07:35:40;;;;;;;4.28;2.20;;;20.70;99.70;;;;;;5031618;28;20029;-75
2022/07/16 07:38:05;;;;;;;7.40;2.35;;;20.70;99.60;;;;;;5031561;28;20026;-75
2022/07/16 07:40:31;;;;;;;6.53;2.35;;;20.80;99.40;;;;;;5031486;28;20041;-75
2022/07/16 07:42:59;;;;;;;3.75;2.10;;;20.70;99.90;;;;;;5031207;28;20021;-75
2022/07/16 07:45:25;;;;;;;4.63;2.67;;;20.80;99.80;;;;;;5030883;28;20024;-75
2022/07/16 07:47:50;;;;;;;5.68;2.15;;;20.80;98.70;;;;;;5031259;28;20080;-75
2022/07/16 07:50:16;;;;;;;5.10;2.25;;;20.90;99.60;;;;;;5013636;28;20431;-75
2022/07/16 07:52:42;;;;;;;6.63;2.53;;;20.90;98.90;;;;;;5026049;28;20025;-75
2022/07/16 07:55:08;;;;;;;8.25;2.45;;;21.00;97.90;;;;;;5013282;28;20029;-75
2022/07/16 07:57:33;;;;;;;4.60;2.50;;;21.00;98.50;;;;;;5031228;28;20403;-75
2022/07/16 07:59:59;;;;;;;6.65;2.75;;;21.10;98.10;;;;;;5031398;28;20108;-75
2022/07/16 08:02:25;;;;;;;3.92;2.20;;;21.20;98.20;;;;;;5022621;28;20037;-75
2022/07/16 08:04:51;;;;;;;6.40;2.45;;;21.20;98.60;;;;;;5030835;28;20053;-75
2022/07/16 08:07:17;;;;;;;5.15;2.83;;;21.20;98.70;;;;;;5031043;28;20025;-75
2022/07/16 08:09:43;;;;;;;4.90;2.60;;;21.20;98.40;;;;;;5012446;28;20479;-75
2022/07/16 08:12:09;;;;;;;5.47;2.70;;;21.30;97.60;;;;;;5031753;28;20029;-75
2022/07/16 08:14:34;;;;;;;5.28;2.50;;;21.30;98.00;;;;;;5027579;28;20025;-75
2022/07/16 08:17:00;;;;;;;5.60;3.03;;;21.50;97.10;;;;;;5031620;28;20030;-75
2022/07/16 08:19:26;;;;;;;5.18;3.00;;;21.60;96.90;;;;;;5013611;28;20119;-75
2022/07/16 08:21:52;;;;;;;4.35;2.55;;;21.60;96.30;;;;;;5029900;28;20034;-75
2022/07/16 08:27:02;;;;;;;4.10;2.17;;;21.70;97.60;;;;;;5021488;28;20429;-75
2022/07/16 08:29:27;;;;;;;5.47;2.50;;;21.60;97.50;;;;;;5029022;28;20053;-75
2022/07/16 08:31:53;;;;;;;5.32;2.50;;;21.70;95.80;;;;;;5029685;28;20017;-75
2022/07/16 08:34:22;;;;;;;6.00;2.50;;;21.70;96.20;;;;;;5029323;28;20017;-75
2022/07/16 08:36:49;;;;;;;7.68;2.40;;;21.60;95.90;;;;;;5029097;28;20378;-76
2022/07/16 08:39:15;;;;;;;6.35;2.60;;;21.60;95.70;;;;;;5024329;28;20496;-75
2022/07/16 08:41:42;;;;;;;4.65;2.90;;;21.60;95.80;;;;;;5028584;28;20134;-75
2022/07/16 08:44:08;;;;;;;6.47;2.83;;;21.70;96.60;;;;;;5028889;28;20478;-75
2022/07/16 08:46:34;;;;;;;5.32;2.58;;;21.80;95.80;;;;;;5027689;28;20087;-75
2022/07/16 08:49:00;;;;;;;7.22;2.65;;;21.90;94.80;;;;;;5018562;28;20045;-75
2022/07/16 08:51:34;;;;;;;6.13;2.78;;;21.90;95.30;;;;;;5027432;28;20376;-75
2022/07/16 08:54:16;;;;;;;4.07;2.47;;;22.00;95.90;;;;;;5008908;28;20034;-75
2022/07/16 08:56:43;;;;;;;4.97;2.90;;;22.00;95.20;;;;;;5027439;28;20118;-75
2022/07/16 08:59:09;;;;;;;6.00;2.67;;;22.00;96.10;;;;;;5027439;28;20026;-75
2022/07/16 09:01:34;;;;;;;7.25;3.40;;;22.10;96.00;;;;;;5027410;28;20041;-75
2022/07/16 09:04:01;;;;;;;5.90;2.80;;;22.10;96.80;;;;;;5026799;28;20100;-75
2022/07/16 09:06:26;;;;;;;7.80;2.65;;;22.20;96.00;;;;;;5009773;28;20124;-75
2022/07/16 09:08:53;;;;;;;6.57;2.75;;;22.20;95.00;;;;;;5027030;28;20478;-75
2022/07/16 09:11:24;;;;;;;4.85;2.70;;;22.30;94.50;;;;;;5027014;28;20040;-75
2022/07/16 09:14:08;;;;;;;7.20;3.15;;;22.40;95.00;;;;;;5022954;28;20080;-76
2022/07/16 09:16:35;;;;;;;5.43;2.40;;;22.50;94.00;;;;;;5023783;28;20113;-75
2022/07/16 09:19:05;;;;;;;5.15;2.90;;;22.50;95.10;;;;;;5025793;28;20033;-75
2022/07/16 09:21:32;;;;;;;6.85;2.80;;;22.60;93.10;;;;;;5019076;28;20028;-75
2022/07/16 09:23:58;;;;;;;5.57;2.40;;;22.70;93.30;;;;;;5026896;28;20030;-75
2022/07/16 09:26:25;;;;;;;6.38;2.50;;;22.80;93.60;;;;;;5003750;28;20482;-75
2022/07/16 09:28:52;;;;;;;5.93;2.67;;;22.90;93.40;;;;;;5026864;28;20056;-75
2022/07/16 09:31:41;;;;;;;8.27;2.75;;;22.90;91.90;;;;;;5026216;28;20103;-75
2022/07/16 09:34:13;;;;;;;6.85;2.60;;;23.10;90.90;;;;;;5021234;28;20079;-76
2022/07/16 09:36:40;;;;;;;4.25;2.38;;;23.20;91.20;;;;;;5025220;28;20026;-75
2022/07/16 09:39:07;;;;;;;4.10;2.25;;;23.30;90.40;;;;;;5008719;28;20036;-76
2022/07/16 09:41:45;;;;;;;4.45;2.35;;;23.60;89.90;;;;;;5026623;28;20033;-75
2022/07/16 09:44:18;;;;;;;3.45;2.20;;;23.90;87.80;;;;;;5026677;28;20485;-75
2022/07/16 09:46:58;;;;;;;7.72;3.17;;;24.10;88.50;;;;;;5026567;28;20104;-75
2022/07/16 09:49:25;;;;;;;4.90;2.53;;;24.50;87.70;;;;;;5026494;28;20026;-75
2022/07/16 09:51:51;;;;;;;3.85;2.30;;;24.70;85.00;;;;;;5026159;28;20104;-76
2022/07/16 09:54:31;;;;;;;7.63;2.72;;;25.00;85.80;;;;;;5026598;28;20032;-75
2022/07/16 09:57:17;;;;;;;3.92;2.63;;;25.30;84.30;;;;;;5026522;28;20036;-75
2022/07/16 09:59:44;;;;;;;5.95;2.60;;;25.30;83.40;;;;;;5025851;28;20047;-75
2022/07/16 10:02:10;;;;;;;4.57;2.22;;;25.30;86.60;;;;;;5026627;28;20069;-75
2022/07/16 10:04:38;;;;;;;6.65;2.50;;;25.40;84.80;;;;;;5028376;28;20098;-76
2022/07/16 10:07:03;;;;;;;4.35;2.55;;;25.70;82.00;;;;;;5029429;28;20037;-76
2022/07/16 10:09:29;;;;;;;4.15;2.45;;;26.00;81.90;;;;;;5028425;28;20029;-76
2022/07/16 10:11:57;;;;;;;8.68;2.95;;;25.90;78.80;;;;;;5029731;28;20057;-76
2022/07/16 10:14:24;;;;;;;6.72;2.75;;;25.90;81.60;;;;;;5022735;28;20022;-75
2022/07/16 10:16:50;;;;;;;5.72;2.33;;;26.10;79.70;;;;;;5026988;28;20696;-76
2022/07/16 10:19:16;;;;;;;4.15;2.38;;;26.40;74.90;;;;;;5028996;28;20029;-76
2022/07/16 10:22:12;;;;;;;5.90;2.40;;;26.50;75.60;;;;;;5028869;28;20030;-76
2022/07/16 10:24:47;;;;;;;9.45;2.90;;;26.30;75.40;;;;;;5028499;28;20028;-76
2022/07/16 10:27:17;;;;;;;4.32;2.35;;;26.40;74.20;;;;;;5029061;28;20032;-76
2022/07/16 10:29:43;;;;;;;5.55;2.50;;;26.40;74.30;;;;;;5011952;28;20072;-76
2022/07/16 10:32:27;;;;;;;7.18;2.67;;;26.40;73.00;;;;;;5011920;28;20486;-76
2022/07/16 10:34:54;;;;;;;6.87;2.80;;;26.40;73.90;;;;;;5030999;28;20032;-74
2022/07/16 10:37:30;;;;;;;6.10;3.03;;;26.30;73.60;;;;;;5028274;28;20028;-74
2022/07/16 10:40:03;;;;;;;3.67;2.40;;;26.40;74.10;;;;;;5033348;28;20083;-76
2022/07/16 10:42:29;;;;;;;4.80;2.50;;;26.40;73.50;;;;;;5027065;28;20116;-76
2022/07/16 10:44:55;;;;;;;11.35;2.45;;;26.40;73.70;;;;;;5031557;28;20038;-76
2022/07/16 10:47:42;;;;;;;4.22;2.40;;;26.40;73.40;;;;;;5032665;28;20033;-74
2022/07/16 10:50:22;;;;;;;3.53;2.28;;;26.80;74.20;;;;;;5031103;28;20462;-75
2022/07/16 10:52:49;;;;;;;5.85;2.20;;;27.00;74.80;;;;;;5032674;28;20382;-75
2022/07/16 10:55:33;;;;;;;5.10;2.40;;;27.10;74.20;;;;;;5032974;28;20445;-75
2022/07/16 10:57:59;;;;;;;5.43;2.50;;;27.00;71.70;;;;;;5022840;28;20038;-75
2022/07/16 11:00:26;;;;;;;4.28;2.38;;;26.90;73.70;;;;;;5004495;28;20033;-76
2022/07/16 11:02:58;;;;;;;7.18;2.45;;;27.00;71.60;;;;;;5025477;28;20111;-76
2022/07/16 11:05:26;;;;;;;6.22;2.60;;;27.20;72.50;;;;;;5030720;28;20104;-75
2022/07/16 11:07:52;;;;;;;4.88;2.20;;;27.50;70.60;;;;;;5013406;28;20021;-75
2022/07/16 11:10:22;;;;;;;7.32;2.28;;;27.60;72.80;;;;;;5031686;28;20500;-75
2022/07/16 11:12:48;;;;;;;7.05;2.50;;;27.80;68.00;;;;;;5028174;28;20014;-74
2022/07/16 11:15:14;;;;;;;7.88;2.92;;;27.80;70.80;;;;;;5028332;28;20026;-74
2022/07/16 11:17:40;;;;;;;4.18;2.38;;;27.80;69.90;;;;;;5033237;28;20032;-74
2022/07/16 11:20:09;;;;;;;4.78;2.28;;;28.00;70.90;;;;;;5033028;28;20111;-73
2022/07/16 11:22:34;;;;;;;5.25;2.40;;;28.20;69.20;;;;;;5032513;28;20024;-74
2022/07/16 11:25:05;;;;;;;7.38;2.58;;;28.10;69.70;;;;;;5026137;28;20022;-74
2022/07/16 11:27:36;;;;;;;4.97;2.67;;;28.20;68.90;;;;;;5031772;28;20028;-75
2022/07/16 11:30:05;;;;;;;4.40;2.13;;;28.20;70.10;;;;;;5031982;28;20032;-75
2022/07/16 11:32:31;;;;;;;6.32;2.17;;;28.20;69.30;;;;;;5031144;28;20109;-75
2022/07/16 11:35:03;;;;;;;5.78;2.25;;;28.20;70.60;;;;;;5030943;28;20113;-75
2022/07/16 11:37:28;;;;;;;4.35;2.65;;;28.50;67.40;;;;;;5031749;28;20049;-75
2022/07/16 11:40:00;;;;;;;4.55;2.38;;;28.60;67.80;;;;;;5025971;28;20333;-76
2022/07/16 11:42:25;;;;;;;4.78;2.40;;;28.60;64.70;;;;;;5026376;28;20091;-75
2022/07/16 11:44:52;;;;;;;5.15;2.50;;;28.70;64.00;;;;;;5012912;28;20029;-76
2022/07/16 11:47:17;;;;;;;5.97;2.10;;;28.80;67.10;;;;;;5031628;28;20029;-75
2022/07/16 11:49:45;;;;;;;4.35;2.20;;;28.80;67.50;;;;;;5031606;28;20530;-75
2022/07/16 11:52:16;;;;;;;7.38;2.35;;;29.00;67.60;;;;;;5031443;28;20022;-74
2022/07/16 11:54:42;;;;;;;7.55;2.42;;;29.40;67.30;;;;;;5014237;28;20087;-74
2022/07/16 11:57:11;;;;;;;4.50;2.20;;;29.60;66.30;;;;;;5024631;28;20390;-73
2022/07/16 11:59:47;;;;;;;5.35;2.55;;;29.70;64.90;;;;;;5018058;28;20034;-73
2022/07/16 12:02:16;;;;;;;6.53;2.60;;;30.00;64.30;;;;;;5031999;28;20494;-74
2022/07/16 12:04:46;;;;;;;4.97;1.90;;;30.10;63.50;;;;;;5026983;28;20455;-74
2022/07/16 12:07:25;;;;;;;9.85;2.30;;;30.20;60.80;;;;;;5011308;28;20037;-74
2022/07/16 12:09:52;;;;;;;3.58;2.05;;;30.30;61.50;;;;;;5032217;28;20063;-74
2022/07/16 12:12:24;;;;;;;4.18;2.00;;;30.50;58.20;;;;;;5030908;28;20382;-74
2022/07/16 12:14:53;;;;;;;10.18;2.13;;;30.70;59.70;;;;;;5028052;28;20453;-74
2022/07/16 12:17:25;;;;;;;3.50;1.90;;;30.80;59.40;;;;;;5030119;28;20469;-73
2022/07/16 12:20:08;;;;;;;5.47;2.13;;;30.60;57.40;;;;;;5031999;28;20025;-74
2022/07/16 12:23:02;;;;;;;6.25;2.30;;;30.30;58.70;;;;;;5007083;28;20362;-75
2022/07/16 12:25:33;;;;;;;4.38;2.30;;;30.60;58.40;;;;;;5029887;28;20064;-75
2022/07/16 12:28:11;;;;;;;3.35;2.17;;;30.60;58.80;;;;;;5030111;28;20021;-74
2022/07/16 12:30:40;;;;;;;5.43;2.10;;;30.50;57.60;;;;;;5012970;28;20025;-75
2022/07/16 12:33:09;;;;;;;6.38;2.08;;;30.80;57.40;;;;;;5007494;28;20021;-75
2022/07/16 12:35:42;;;;;;;3.85;1.95;;;31.20;57.40;;;;;;5006925;28;20112;-74
2022/07/16 12:38:29;;;;;;;8.18;2.05;;;31.30;57.30;;;;;;5030707;28;20025;-75
2022/07/16 12:41:00;;;;;;;10.20;2.50;;;31.10;56.70;;;;;;5031905;28;20485;-75
2022/07/16 12:43:26;;;;;;;6.50;2.10;;;31.00;57.60;;;;;;5036233;28;20350;-75
2022/07/16 12:45:52;;;;;;;4.97;1.90;;;31.00;56.80;;;;;;5028221;28;20116;-75
2022/07/16 12:48:17;;;;;;;3.22;1.92;;;31.20;56.20;;;;;;5024856;28;20041;-74
2022/07/16 12:50:43;;;;;;;5.15;2.35;;;31.00;56.00;;;;;;5029950;28;20033;-74
2022/07/16 12:53:08;;;;;;;5.32;2.05;;;31.20;56.60;;;;;;5029843;28;20029;-77